Wetterdaten: Woche 02.03.15 - 08.03.15 (KW10)
Datum Zeit Temperatur Luftfeuchte Luftdruck Niederschlag Windrichtung Sonnenschein Solar Wind
02.03.2015 00:00 5,8 C 99 % 1007,7 hPa 0,2 l/m SW 0,00 h 0 W/m 10,1 km/h (2 Bft)
02.03.2015 01:00 5,5 C 99 % 1006,7 hPa 0,2 l/m S-SW 0,00 h 0 W/m 14,2 km/h (3 Bft)
02.03.2015 02:00 6,1 C 99 % 1005,5 hPa 0,6 l/m W-SW 0,00 h 0 W/m 23,6 km/h (4 Bft)
02.03.2015 03:00 6,4 C 99 % 1005,0 hPa 1,4 l/m SW 0,00 h 0 W/m 26,3 km/h (4 Bft)
02.03.2015 04:00 6,9 C 99 % 1004,4 hPa 0,0 l/m SW 0,00 h 0 W/m 29,9 km/h (5 Bft)
02.03.2015 05:00 7,2 C 98 % 1004,4 hPa 0,0 l/m W-SW 0,00 h 0 W/m 27,3 km/h (4 Bft)
02.03.2015 06:00 7,3 C 96 % 1004,6 hPa 0,0 l/m W-SW 0,00 h 0 W/m 23,2 km/h (4 Bft)
02.03.2015 07:00 7,2 C 94 % 1004,4 hPa 0,0 l/m W-SW 0,00 h 21 W/m 21,3 km/h (4 Bft)
02.03.2015 08:00 7,4 C 91 % 1005,2 hPa 0,0 l/m W-NW 0,00 h 54 W/m 25,1 km/h (4 Bft)
02.03.2015 09:00 6,0 C 90 % 1007,0 hPa 0,4 l/m W-NW 0,00 h 59 W/m 18,2 km/h (3 Bft)
02.03.2015 10:00 5,5 C 87 % 1007,8 hPa 0,0 l/m W-NW 0,00 h 73 W/m 21,6 km/h (4 Bft)
02.03.2015 11:00 5,3 C 79 % 1008,0 hPa 0,0 l/m W-NW 0,08 h 136 W/m 24,7 km/h (4 Bft)
02.03.2015 12:00 5,5 C 80 % 1008,9 hPa 0,0 l/m W 0,00 h 137 W/m 19,3 km/h (3 Bft)
02.03.2015 13:00 5,8 C 82 % 1009,1 hPa 0,0 l/m W 0,00 h 147 W/m 16,9 km/h (3 Bft)
02.03.2015 14:00 6,2 C 82 % 1009,3 hPa 0,0 l/m SW 0,00 h 65 W/m 17,7 km/h (3 Bft)
02.03.2015 15:00 4,9 C 87 % 1010,0 hPa 0,4 l/m N-NW 0,00 h 21 W/m 13,3 km/h (3 Bft)
02.03.2015 16:00 3,8 C 93 % 1010,9 hPa 2,8 l/m W-SW 0,75 h 206 W/m 16,9 km/h (3 Bft)
02.03.2015 17:00 4,4 C 88 % 1011,4 hPa 0,4 l/m W 0,58 h 62 W/m 19,0 km/h (3 Bft)
02.03.2015 18:00 4,2 C 84 % 1012,4 hPa 0,0 l/m W-SW 0,00 h 5 W/m 15,2 km/h (3 Bft)
02.03.2015 19:00 2,7 C 89 % 1014,2 hPa 1,6 l/m W-NW 0,00 h 0 W/m 20,4 km/h (4 Bft)
02.03.2015 20:00 1,3 C 94 % 1015,5 hPa 0,6 l/m W 0,00 h 0 W/m 20,7 km/h (4 Bft)
02.03.2015 21:00 1,3 C 89 % 1016,8 hPa 0,0 l/m W 0,00 h 0 W/m 28,6 km/h (4 Bft)
02.03.2015 22:00 1,3 C 87 % 1018,8 hPa 0,0 l/m W 0,00 h 0 W/m 18,1 km/h (3 Bft)
02.03.2015 23:00 0,9 C 87 % 1020,2 hPa 0,0 l/m W-SW 0,00 h 0 W/m 14,8 km/h (3 Bft)
03.03.2015 00:00 0,6 C 87 % 1021,2 hPa 0,0 l/m SW 0,00 h 0 W/m 11,6 km/h (2 Bft)
03.03.2015 01:00 0,3 C 88 % 1021,8 hPa 0,0 l/m SW 0,00 h 0 W/m 14,0 km/h (3 Bft)
03.03.2015 02:00 0,8 C 85 % 1022,0 hPa 0,0 l/m W-SW 0,00 h 0 W/m 14,9 km/h (3 Bft)
03.03.2015 03:00 0,9 C 87 % 1022,0 hPa 0,0 l/m W-SW 0,00 h 0 W/m 12,9 km/h (3 Bft)
03.03.2015 04:00 0,9 C 87 % 1022,1 hPa 0,0 l/m W 0,00 h 0 W/m 13,7 km/h (3 Bft)
03.03.2015 05:00 0,5 C 88 % 1022,4 hPa 0,0 l/m SW 0,00 h 0 W/m 10,1 km/h (2 Bft)
03.03.2015 06:00 -0,6 C 91 % 1022,5 hPa 0,0 l/m SW 0,00 h 5 W/m 9,3 km/h (2 Bft)
03.03.2015 07:00 0,1 C 90 % 1022,9 hPa 0,0 l/m W-SW 0,42 h 34 W/m 8,8 km/h (2 Bft)
03.03.2015 08:00 0,3 C 89 % 1023,4 hPa 0,0 l/m W-SW 0,67 h 141 W/m 6,5 km/h (2 Bft)
03.03.2015 09:00 1,1 C 91 % 1023,8 hPa 0,0 l/m SW 1,00 h 325 W/m 10,6 km/h (2 Bft)
03.03.2015 10:00 3,2 C 78 % 1024,0 hPa 0,0 l/m SW 1,00 h 456 W/m 17,6 km/h (3 Bft)
03.03.2015 11:00 5,0 C 69 % 1023,9 hPa 0,0 l/m SW 0,92 h 503 W/m 17,7 km/h (3 Bft)
03.03.2015 12:00 6,3 C 63 % 1023,4 hPa 0,0 l/m SW 0,92 h 577 W/m 20,9 km/h (4 Bft)
03.03.2015 13:00 7,5 C 60 % 1022,2 hPa 0,0 l/m S-SW 0,92 h 531 W/m 16,5 km/h (3 Bft)
03.03.2015 14:00 8,4 C 56 % 1021,3 hPa 0,0 l/m W-SW 0,92 h 491 W/m 24,0 km/h (4 Bft)
03.03.2015 15:00 8,5 C 54 % 1020,9 hPa 0,0 l/m SW 0,75 h 296 W/m 23,5 km/h (4 Bft)
03.03.2015 16:00 8,3 C 54 % 1020,5 hPa 0,0 l/m W-SW 0,67 h 204 W/m 23,8 km/h (4 Bft)
03.03.2015 17:00 7,6 C 58 % 1020,2 hPa 0,0 l/m W-SW 0,25 h 46 W/m 16,8 km/h (3 Bft)
03.03.2015 18:00 6,3 C 64 % 1020,0 hPa 0,0 l/m SW 0,00 h 5 W/m 5,5 km/h (1 Bft)
03.03.2015 19:00 5,7 C 67 % 1020,3 hPa 0,0 l/m W-SW 0,00 h 0 W/m 12,6 km/h (3 Bft)
03.03.2015 20:00 5,4 C 69 % 1020,7 hPa 0,0 l/m W 0,00 h 0 W/m 9,7 km/h (2 Bft)
03.03.2015 21:00 4,8 C 73 % 1020,9 hPa 0,0 l/m W-SW 0,00 h 0 W/m 9,4 km/h (2 Bft)
03.03.2015 22:00 4,5 C 74 % 1020,9 hPa 0,0 l/m SW 0,00 h 0 W/m 10,6 km/h (2 Bft)
03.03.2015 23:00 4,4 C 74 % 1020,9 hPa 0,0 l/m SW 0,00 h 0 W/m 11,0 km/h (2 Bft)
04.03.2015 00:00 4,8 C 75 % 1020,9 hPa 0,0 l/m W-SW 0,00 h 0 W/m 13,7 km/h (3 Bft)
04.03.2015 01:00 4,7 C 79 % 1021,1 hPa 0,0 l/m W-SW 0,00 h 0 W/m 14,2 km/h (3 Bft)
04.03.2015 02:00 4,0 C 86 % 1021,3 hPa 2,4 l/m W-SW 0,00 h 0 W/m 24,0 km/h (4 Bft)
04.03.2015 03:00 2,4 C 91 % 1022,0 hPa 0,2 l/m W-NW 0,00 h 0 W/m 18,0 km/h (3 Bft)
04.03.2015 04:00 1,3 C 92 % 1022,4 hPa 0,0 l/m W 0,00 h 0 W/m 8,9 km/h (2 Bft)
04.03.2015 05:00 1,3 C 93 % 1023,1 hPa 0,0 l/m W 0,00 h 0 W/m 5,7 km/h (1 Bft)
04.03.2015 06:00 1,1 C 93 % 1023,9 hPa 0,0 l/m W 0,00 h 0 W/m 6,1 km/h (2 Bft)
04.03.2015 07:00 0,9 C 94 % 1024,7 hPa 0,0 l/m W 0,00 h 21 W/m 5,6 km/h (1 Bft)
04.03.2015 08:00 1,3 C 95 % 1025,1 hPa 0,0 l/m W-SW 0,08 h 115 W/m 8,8 km/h (2 Bft)
04.03.2015 09:00 2,3 C 95 % 1025,6 hPa 0,0 l/m S-SW 0,25 h 176 W/m 10,3 km/h (2 Bft)
04.03.2015 10:00 3,0 C 91 % 1025,7 hPa 0,0 l/m SW 0,08 h 164 W/m 8,4 km/h (2 Bft)
04.03.2015 11:00 4,1 C 80 % 1025,6 hPa 0,0 l/m W 0,50 h 313 W/m 12,6 km/h (3 Bft)
04.03.2015 12:00 5,1 C 70 % 1025,4 hPa 0,0 l/m W 0,75 h 409 W/m 17,2 km/h (3 Bft)
04.03.2015 13:00 5,2 C 65 % 1025,3 hPa 0,0 l/m W 0,25 h 263 W/m 16,4 km/h (3 Bft)
04.03.2015 14:00 5,5 C 57 % 1025,0 hPa 0,0 l/m N-NW 0,83 h 390 W/m 16,8 km/h (3 Bft)
04.03.2015 15:00 5,6 C 54 % 1024,7 hPa 0,0 l/m NW 0,50 h 265 W/m 14,0 km/h (3 Bft)
04.03.2015 16:00 4,8 C 52 % 1025,3 hPa 0,0 l/m NW 0,00 h 68 W/m 10,2 km/h (2 Bft)
04.03.2015 17:00 4,2 C 57 % 1026,2 hPa 0,0 l/m W-NW 0,00 h 33 W/m 7,1 km/h (2 Bft)
04.03.2015 18:00 2,7 C 62 % 1026,9 hPa 0,0 l/m N 0,00 h 6 W/m 3,5 km/h (1 Bft)
04.03.2015 19:00 1,9 C 67 % 1027,5 hPa 0,0 l/m N 0,00 h 0 W/m 0,7 km/h (0 Bft)
04.03.2015 20:00 0,7 C 75 % 1028,1 hPa 0,0 l/m W-NW 0,00 h 0 W/m 2,0 km/h (1 Bft)
04.03.2015 21:00 -0,4 C 82 % 1028,7 hPa 0,0 l/m N 0,00 h 0 W/m 1,1 km/h (0 Bft)
04.03.2015 22:00 -0,9 C 86 % 1029,5 hPa 0,0 l/m N 0,00 h 0 W/m 1,5 km/h (1 Bft)
04.03.2015 23:00 -0,9 C 90 % 1030,2 hPa 0,0 l/m N 0,00 h 0 W/m 1,5 km/h (1 Bft)
05.03.2015 00:00 -0,9 C 91 % 1030,6 hPa 0,0 l/m N 0,00 h 0 W/m 0,0 km/h (0 Bft)
05.03.2015 01:00 -0,8 C 92 % 1031,3 hPa 0,0 l/m W-NW 0,00 h 0 W/m 3,1 km/h (1 Bft)
05.03.2015 02:00 -0,0 C 90 % 1031,5 hPa 0,0 l/m W-NW 0,00 h 0 W/m 5,2 km/h (1 Bft)
05.03.2015 03:00 0,2 C 87 % 1031,8 hPa 0,0 l/m W-NW 0,00 h 0 W/m 4,9 km/h (1 Bft)
05.03.2015 04:00 0,4 C 87 % 1031,8 hPa 0,0 l/m W-NW 0,00 h 0 W/m 7,1 km/h (2 Bft)
05.03.2015 05:00 0,4 C 88 % 1032,1 hPa 0,0 l/m NW 0,00 h 0 W/m 8,0 km/h (2 Bft)
05.03.2015 06:00 0,3 C 89 % 1032,3 hPa 0,0 l/m N-NW 0,00 h 0 W/m 11,0 km/h (2 Bft)
05.03.2015 07:00 0,2 C 89 % 1032,8 hPa 0,0 l/m NW 0,00 h 20 W/m 10,3 km/h (2 Bft)
05.03.2015 08:00 0,4 C 91 % 1033,3 hPa 0,0 l/m N-NW 0,17 h 83 W/m 12,9 km/h (3 Bft)
05.03.2015 09:00 1,5 C 86 % 1033,8 hPa 0,2 l/m N-NO 0,33 h 155 W/m 15,8 km/h (3 Bft)
05.03.2015 10:00 1,4 C 82 % 1034,3 hPa 0,0 l/m N-NO 0,00 h 97 W/m 15,2 km/h (3 Bft)
05.03.2015 11:00 2,1 C 75 % 1034,6 hPa 0,0 l/m N-NO 0,00 h 188 W/m 19,7 km/h (3 Bft)
05.03.2015 12:00 2,9 C 71 % 1034,6 hPa 0,0 l/m N-NO 0,08 h 246 W/m 18,9 km/h (3 Bft)
05.03.2015 13:00 3,5 C 64 % 1034,4 hPa 0,0 l/m N-NO 0,25 h 284 W/m 17,6 km/h (3 Bft)
05.03.2015 14:00 3,8 C 63 % 1034,3 hPa 0,0 l/m N-NO 0,08 h 189 W/m 15,0 km/h (3 Bft)
05.03.2015 15:00 4,0 C 59 % 1034,3 hPa 0,0 l/m N-NO 0,08 h 165 W/m 15,2 km/h (3 Bft)
05.03.2015 16:00 3,9 C 58 % 1034,4 hPa 0,0 l/m NO 0,00 h 91 W/m 11,4 km/h (2 Bft)
05.03.2015 17:00 3,5 C 62 % 1034,7 hPa 0,0 l/m N-NO 0,00 h 33 W/m 8,3 km/h (2 Bft)
05.03.2015 18:00 2,7 C 66 % 1035,1 hPa 0,0 l/m N-NO 0,00 h 5 W/m 4,5 km/h (1 Bft)
05.03.2015 19:00 2,2 C 69 % 1035,5 hPa 0,0 l/m N 0,00 h 0 W/m 1,1 km/h (0 Bft)
05.03.2015 20:00 1,6 C 73 % 1035,8 hPa 0,0 l/m N-NO 0,00 h 0 W/m 0,1 km/h (0 Bft)
05.03.2015 21:00 1,3 C 75 % 1036,0 hPa 0,0 l/m N-NO 0,00 h 0 W/m 7,3 km/h (2 Bft)
05.03.2015 22:00 1,2 C 76 % 1036,4 hPa 0,0 l/m N 0,00 h 0 W/m 0,0 km/h (0 Bft)
05.03.2015 23:00 0,4 C 80 % 1036,3 hPa 0,0 l/m N 0,00 h 0 W/m 0,4 km/h (0 Bft)
06.03.2015 00:00 -0,2 C 82 % 1036,0 hPa 0,0 l/m N 0,00 h 0 W/m 0,0 km/h (0 Bft)
06.03.2015 01:00 -0,9 C 83 % 1036,1 hPa 0,0 l/m N 0,00 h 0 W/m 0,1 km/h (0 Bft)
06.03.2015 02:00 -1,3 C 85 % 1036,1 hPa 0,0 l/m N 0,00 h 0 W/m 0,0 km/h (0 Bft)
06.03.2015 03:00 -1,7 C 86 % 1036,2 hPa 0,0 l/m N 0,00 h 0 W/m 0,0 km/h (0 Bft)
06.03.2015 04:00 -1,7 C 89 % 1036,3 hPa 0,0 l/m N 0,00 h 0 W/m 0,0 km/h (0 Bft)
06.03.2015 05:00 -2,2 C 89 % 1036,5 hPa 0,0 l/m N 0,00 h 0 W/m 0,0 km/h (0 Bft)
06.03.2015 06:00 -2,8 C 89 % 1036,8 hPa 0,0 l/m N 0,00 h 5 W/m 0,1 km/h (0 Bft)
06.03.2015 07:00 -3,1 C 91 % 1037,1 hPa 0,0 l/m N 0,00 h 25 W/m 0,1 km/h (0 Bft)
06.03.2015 08:00 -2,2 C 93 % 1037,8 hPa 0,0 l/m N 0,75 h 170 W/m 0,4 km/h (0 Bft)
06.03.2015 09:00 1,1 C 89 % 1038,0 hPa 0,0 l/m W 0,83 h 336 W/m 2,9 km/h (1 Bft)
06.03.2015 10:00 2,7 C 80 % 1038,2 hPa 0,0 l/m W-SW 0,83 h 300 W/m 4,4 km/h (1 Bft)
06.03.2015 11:00 4,2 C 66 % 1037,7 hPa 0,0 l/m SW 1,00 h 470 W/m 5,7 km/h (1 Bft)
06.03.2015 12:00 5,4 C 56 % 1037,0 hPa 0,0 l/m W-SW 1,00 h 613 W/m 5,9 km/h (2 Bft)
06.03.2015 13:00 6,7 C 54 % 1036,3 hPa 0,0 l/m SO 0,92 h 527 W/m 9,1 km/h (2 Bft)
06.03.2015 14:00 7,5 C 50 % 1035,6 hPa 0,0 l/m O-SO 1,00 h 549 W/m 10,6 km/h (2 Bft)
06.03.2015 15:00 7,5 C 50 % 1035,3 hPa 0,0 l/m O-NO 1,00 h 422 W/m 11,3 km/h (2 Bft)
06.03.2015 16:00 7,2 C 50 % 1034,8 hPa 0,0 l/m O 1,00 h 266 W/m 9,9 km/h (2 Bft)
06.03.2015 17:00 6,3 C 53 % 1034,7 hPa 0,0 l/m O 0,25 h 49 W/m 3,7 km/h (1 Bft)
06.03.2015 18:00 3,6 C 66 % 1034,9 hPa 0,0 l/m N 0,00 h 7 W/m 0,1 km/h (0 Bft)
06.03.2015 19:00 2,4 C 70 % 1034,8 hPa 0,0 l/m N 0,00 h 0 W/m 0,1 km/h (0 Bft)
06.03.2015 20:00 1,1 C 72 % 1035,4 hPa 0,0 l/m N 0,00 h 0 W/m 0,0 km/h (0 Bft)
06.03.2015 21:00 0,1 C 74 % 1035,5 hPa 0,0 l/m N 0,00 h 0 W/m 0,0 km/h (0 Bft)
06.03.2015 22:00 -0,8 C 76 % 1035,5 hPa 0,0 l/m N 0,00 h 0 W/m 0,0 km/h (0 Bft)
06.03.2015 23:00 -1,4 C 79 % 1035,1 hPa 0,0 l/m O 0,00 h 0 W/m 1,1 km/h (0 Bft)
07.03.2015 00:00 -1,9 C 82 % 1034,8 hPa 0,0 l/m N 0,00 h 0 W/m 0,3 km/h (0 Bft)
07.03.2015 01:00 -2,2 C 84 % 1034,7 hPa 0,0 l/m N 0,00 h 0 W/m 0,5 km/h (0 Bft)
07.03.2015 02:00 -2,6 C 85 % 1034,3 hPa 0,0 l/m N 0,00 h 0 W/m 0,5 km/h (0 Bft)
07.03.2015 03:00 -2,9 C 86 % 1034,1 hPa 0,0 l/m N 0,00 h 0 W/m 0,0 km/h (0 Bft)
07.03.2015 04:00 -3,2 C 87 % 1033,9 hPa 0,0 l/m N 0,00 h 0 W/m 0,1 km/h (0 Bft)
07.03.2015 05:00 -3,5 C 87 % 1033,7 hPa 0,0 l/m N 0,00 h 0 W/m 0,0 km/h (0 Bft)
07.03.2015 06:00 -3,9 C 89 % 1033,7 hPa 0,0 l/m N 0,00 h 6 W/m 0,8 km/h (0 Bft)
07.03.2015 07:00 -3,9 C 90 % 1034,2 hPa 0,0 l/m N 0,00 h 28 W/m 3,7 km/h (1 Bft)
07.03.2015 08:00 -2,5 C 93 % 1034,0 hPa 0,0 l/m N 0,75 h 171 W/m 3,2 km/h (1 Bft)
07.03.2015 09:00 -0,4 C 90 % 1033,4 hPa 0,0 l/m N 0,92 h 313 W/m 2,3 km/h (1 Bft)
07.03.2015 10:00 2,3 C 76 % 1033,5 hPa 0,0 l/m N 1,00 h 447 W/m 4,4 km/h (1 Bft)
07.03.2015 11:00 5,7 C 59 % 1033,4 hPa 0,0 l/m O-SO 0,92 h 414 W/m 5,6 km/h (1 Bft)
07.03.2015 12:00 7,4 C 55 % 1033,2 hPa 0,0 l/m NO 1,00 h 457 W/m 7,1 km/h (2 Bft)
07.03.2015 13:00 8,9 C 53 % 1032,2 hPa 0,0 l/m NO 0,92 h 535 W/m 10,1 km/h (2 Bft)
07.03.2015 14:00 10,1 C 48 % 1031,4 hPa 0,0 l/m NO 1,00 h 485 W/m 10,7 km/h (2 Bft)
07.03.2015 15:00 10,5 C 46 % 1030,9 hPa 0,0 l/m O 1,00 h 420 W/m 10,6 km/h (2 Bft)
07.03.2015 16:00 10,5 C 48 % 1030,7 hPa 0,0 l/m O 1,00 h 280 W/m 11,3 km/h (2 Bft)
07.03.2015 17:00 9,6 C 52 % 1030,5 hPa 0,0 l/m O-NO 0,58 h 83 W/m 6,4 km/h (2 Bft)
07.03.2015 18:00 7,5 C 61 % 1030,7 hPa 0,0 l/m N 0,00 h 9 W/m 1,9 km/h (1 Bft)
07.03.2015 19:00 5,4 C 67 % 1031,0 hPa 0,0 l/m N 0,00 h 0 W/m 0,7 km/h (0 Bft)
07.03.2015 20:00 3,9 C 71 % 1030,7 hPa 0,0 l/m N 0,00 h 0 W/m 1,1 km/h (0 Bft)
07.03.2015 21:00 2,8 C 76 % 1030,1 hPa 0,0 l/m O-NO 0,00 h 0 W/m 3,7 km/h (1 Bft)
07.03.2015 22:00 2,2 C 80 % 1029,8 hPa 0,0 l/m NO 0,00 h 0 W/m 3,1 km/h (1 Bft)
07.03.2015 23:00 1,4 C 80 % 1029,7 hPa 0,0 l/m N 0,00 h 0 W/m 0,9 km/h (0 Bft)
08.03.2015 00:00 0,7 C 84 % 1029,4 hPa 0,0 l/m NO 0,00 h 0 W/m 3,9 km/h (1 Bft)
08.03.2015 01:00 0,4 C 86 % 1029,3 hPa 0,0 l/m N 0,00 h 0 W/m 0,1 km/h (0 Bft)
08.03.2015 02:00 -0,3 C 86 % 1029,0 hPa 0,0 l/m N 0,00 h 0 W/m 0,7 km/h (0 Bft)
08.03.2015 03:00 -0,9 C 87 % 1028,3 hPa 0,0 l/m N 0,00 h 0 W/m 0,4 km/h (0 Bft)
08.03.2015 04:00 -1,2 C 89 % 1028,1 hPa 0,0 l/m NO 0,00 h 0 W/m 3,3 km/h (1 Bft)
08.03.2015 05:00 -1,1 C 92 % 1027,9 hPa 0,0 l/m N 0,00 h 0 W/m 1,9 km/h (1 Bft)
08.03.2015 06:00 -1,3 C 92 % 1027,5 hPa 0,0 l/m N 0,00 h 6 W/m 0,8 km/h (0 Bft)
08.03.2015 07:00 -1,5 C 93 % 1027,1 hPa 0,0 l/m NO 0,08 h 39 W/m 1,1 km/h (0 Bft)
08.03.2015 08:00 -0,2 C 95 % 1026,9 hPa 0,0 l/m NO 0,75 h 181 W/m 6,8 km/h (2 Bft)
08.03.2015 09:00 1,9 C 93 % 1026,5 hPa 0,0 l/m N-NW 1,00 h 340 W/m 9,3 km/h (2 Bft)
08.03.2015 10:00 4,9 C 83 % 1026,0 hPa 0,0 l/m N-NW 1,00 h 486 W/m 10,9 km/h (2 Bft)
08.03.2015 11:00 7,4 C 73 % 1025,7 hPa 0,0 l/m N 1,00 h 567 W/m 11,0 km/h (2 Bft)
08.03.2015 12:00 10,4 C 58 % 1024,9 hPa 0,0 l/m N-NO 1,00 h 620 W/m 11,8 km/h (2 Bft)
08.03.2015 13:00 12,5 C 52 % 1023,9 hPa 0,0 l/m O-NO 0,92 h 553 W/m 12,0 km/h (2 Bft)
08.03.2015 14:00 13,6 C 49 % 1023,1 hPa 0,0 l/m NO 1,00 h 473 W/m 15,4 km/h (3 Bft)
08.03.2015 15:00 14,1 C 46 % 1022,8 hPa 0,0 l/m NO 1,00 h 332 W/m 14,6 km/h (3 Bft)
08.03.2015 16:00 13,5 C 44 % 1022,9 hPa 0,0 l/m O-NO 0,67 h 163 W/m 12,8 km/h (3 Bft)
08.03.2015 17:00 12,2 C 54 % 1022,9 hPa 0,0 l/m O-NO 0,17 h 54 W/m 6,8 km/h (2 Bft)
08.03.2015 18:00 10,5 C 64 % 1023,2 hPa 0,0 l/m NO 0,08 h 9 W/m 5,3 km/h (1 Bft)
08.03.2015 19:00 8,6 C 68 % 1023,4 hPa 0,0 l/m NO 0,00 h 0 W/m 3,1 km/h (1 Bft)
08.03.2015 20:00 6,7 C 74 % 1023,4 hPa 0,0 l/m N 0,00 h 0 W/m 1,5 km/h (1 Bft)
08.03.2015 21:00 5,2 C 77 % 1023,2 hPa 0,0 l/m N 0,00 h 0 W/m 1,7 km/h (1 Bft)
08.03.2015 22:00 4,2 C 81 % 1022,8 hPa 0,0 l/m N 0,00 h 0 W/m 2,5 km/h (1 Bft)
08.03.2015 23:00 3,6 C 84 % 1022,9 hPa 0,0 l/m N-NO 0,00 h 0 W/m 3,6 km/h (1 Bft)
Min-Datum _ 07.03.15 08.03.15 02.03.15 - - - - 02.03.15
_ Min-Zeit 07:05 15:50 05:45 - - - - 19:10
Minimum _ -4,1 C 41 % 1004,2 hPa - - - - 0,0 km/h (0 Bft)
Max-Datum _ 08.03.15 02.03.15 06.03.15 02.03.15 - 02.03.15 06.03.15 02.03.15
_ Max-Zeit 15:10 00:00 09:30 16:00 - 11:15 13:25 19:35
Maximum _ 14,2 C 99 % 1038,2 hPa 2,8 l/m - 0,08 h 735 W/m 51,5 km/h
W-NW (7 Bft)
Durchschnitt _ 3,2 C 78 % 1026,3 hPa #11,4 l/m W-SW #40:25 h 223 W/m 9,3 km/h (2 Bft)